createdAt,value
2022-12-06T09:58:32.679Z,3.20
2022-12-06T10:03:55.163Z,3.30
2022-12-06T10:09:20.778Z,3.60
2022-12-06T10:14:33.316Z,4.10
2022-12-06T10:19:40.336Z,4.30
2022-12-06T10:24:58.168Z,4.40
2022-12-06T10:29:58.822Z,4.50
2022-12-06T10:34:57.183Z,4.50
2022-12-06T10:39:56.855Z,4.60
2022-12-06T10:44:54.872Z,4.70
2022-12-06T10:49:56.724Z,4.90
2022-12-06T10:54:59.665Z,5.10
2022-12-06T11:00:03.098Z,5.00
2022-12-06T11:05:03.299Z,4.90
2022-12-06T11:09:58.686Z,5.10
2022-12-06T11:14:58.002Z,5.10
2022-12-06T11:19:53.541Z,5.30
2022-12-06T11:24:56.742Z,5.70
2022-12-06T11:29:53.427Z,6.00
2022-12-06T11:34:50.551Z,6.10
2022-12-06T11:39:44.747Z,6.30
2022-12-06T11:44:49.275Z,6.50
2022-12-06T11:49:46.362Z,6.70
2022-12-06T11:54:45.492Z,7.30
2022-12-06T11:59:40.585Z,7.50
2022-12-06T12:04:38.371Z,7.80
2022-12-06T12:09:34.888Z,8.40
2022-12-06T12:14:37.506Z,8.90
2022-12-06T12:19:47.272Z,9.20
2022-12-06T12:25:03.575Z,9.30
2022-12-06T12:30:33.730Z,9.50
2022-12-06T12:35:29.942Z,9.60
2022-12-06T12:40:24.903Z,9.80
2022-12-06T12:45:21.443Z,10.00
2022-12-06T12:50:20.964Z,9.90
2022-12-06T12:55:22.596Z,10.00
2022-12-06T13:00:17.243Z,10.00
2022-12-06T13:05:32.599Z,9.80
2022-12-06T13:10:32.807Z,9.70
2022-12-06T13:15:33.992Z,9.60
2022-12-06T13:20:30.974Z,9.10
2022-12-06T13:25:24.877Z,8.30
2022-12-06T13:30:22.048Z,7.50
2022-12-06T13:35:25.461Z,6.70
2022-12-06T13:40:54.424Z,6.20
2022-12-06T13:45:50.416Z,5.90
2022-12-06T13:50:56.348Z,5.60
2022-12-06T13:56:01.656Z,5.50
2022-12-06T14:00:58.127Z,5.30
2022-12-06T14:06:09.125Z,5.10
2022-12-06T14:11:08.438Z,5.10
2022-12-06T14:16:03.745Z,4.90
2022-12-06T14:20:59.438Z,4.80
2022-12-06T14:25:52.997Z,4.60
2022-12-06T14:30:46.667Z,4.50
2022-12-06T14:35:42.011Z,4.50
2022-12-06T14:40:54.065Z,4.50
2022-12-06T14:45:48.010Z,4.50
2022-12-06T14:50:49.932Z,4.50
2022-12-06T14:55:56.404Z,4.40
2022-12-06T15:00:54.559Z,4.40
2022-12-06T15:05:57.404Z,4.30
2022-12-06T15:10:58.951Z,4.30
2022-12-06T15:16:04.145Z,4.20
2022-12-06T15:20:59.404Z,4.20
2022-12-06T15:25:53.880Z,4.10
2022-12-06T15:30:47.933Z,4.10
2022-12-06T15:35:41.445Z,4.00
2022-12-06T15:40:37.976Z,4.00
2022-12-06T15:45:32.308Z,4.00
2022-12-06T15:50:25.865Z,4.00
2022-12-06T15:55:20.011Z,3.90
2022-12-06T16:00:16.666Z,3.80
2022-12-06T16:05:16.431Z,3.80
2022-12-06T16:10:10.534Z,3.70
2022-12-06T16:15:04.352Z,3.60
2022-12-06T16:20:18.141Z,3.60
2022-12-06T16:25:11.779Z,3.50
2022-12-06T16:30:06.141Z,3.50
2022-12-06T16:35:01.355Z,3.50
2022-12-06T16:39:55.198Z,3.50
2022-12-06T16:44:52.027Z,3.40
2022-12-06T16:49:47.436Z,3.30
2022-12-06T16:54:43.274Z,3.40
2022-12-06T16:59:38.461Z,3.20
2022-12-06T17:04:31.976Z,3.20
2022-12-06T17:09:25.456Z,3.10
2022-12-06T17:14:22.719Z,2.80
2022-12-06T17:19:19.543Z,2.80
2022-12-06T17:24:14.309Z,2.60
2022-12-06T17:29:09.186Z,2.40
2022-12-06T17:34:05.557Z,2.50
2022-12-06T17:39:01.417Z,2.50
2022-12-06T17:43:55.030Z,2.30
